Time;durP1;ratioP1;P1;durP2;ratioP2;P2;SDS_P1;SDS_P2;PMS_P1;PMS_P2;Temp;Humidity;BMP_temperature;BMP_pressure;BME280_temperature;BME280_humidity;BME280_pressure;Samples;Min_cycle;Max_cycle;Signal;HPM_P1;HPM_P2
2021/10/04 00:02:05;;;;;;;4.22;2.70;;;7.40;99.90;;;;;;4327262;32;20101;-67
2021/10/04 00:04:31;;;;;;;4.65;2.35;;;7.40;99.90;;;;;;4338859;32;20069;-65
2021/10/04 00:06:57;;;;;;;4.25;2.50;;;7.40;99.90;;;;;;4363399;32;20153;-65
2021/10/04 00:09:24;;;;;;;3.28;2.37;;;7.50;99.90;;;;;;4338792;32;20597;-65
2021/10/04 00:11:51;;;;;;;3.97;2.60;;;7.40;99.90;;;;;;4326411;32;20111;-65
2021/10/04 00:14:20;;;;;;;3.62;2.62;;;7.50;99.90;;;;;;4338220;32;20074;-67
2021/10/04 00:16:48;;;;;;;4.18;2.75;;;7.60;99.90;;;;;;4362788;32;20516;-66
2021/10/04 00:19:14;;;;;;;5.25;2.97;;;7.60;99.90;;;;;;4351739;32;20143;-65
2021/10/04 00:21:41;;;;;;;3.60;2.47;;;7.50;99.90;;;;;;4338682;32;20449;-65
2021/10/04 00:24:07;;;;;;;3.90;2.37;;;7.50;99.90;;;;;;4363250;32;20087;-65
2021/10/04 00:26:33;;;;;;;2.65;1.92;;;7.50;99.90;;;;;;4363292;32;20070;-65
2021/10/04 00:29:00;;;;;;;3.62;2.30;;;7.40;99.90;;;;;;4326139;32;20089;-65
2021/10/04 00:31:26;;;;;;;3.40;2.53;;;7.50;99.90;;;;;;4362552;32;20089;-66
2021/10/04 00:33:52;;;;;;;4.65;2.92;;;7.50;99.90;;;;;;4350802;32;20474;-66
2021/10/04 00:36:19;;;;;;;4.57;2.62;;;7.40;99.90;;;;;;4326434;32;20460;-64
2021/10/04 00:38:46;;;;;;;5.60;2.55;;;7.50;99.90;;;;;;4326070;32;20078;-65
2021/10/04 00:41:12;;;;;;;6.40;2.75;;;7.50;99.90;;;;;;4376967;32;20062;-66
2021/10/04 00:43:38;;;;;;;4.00;2.67;;;7.40;99.90;;;;;;4350703;32;20091;-65
2021/10/04 00:46:05;;;;;;;5.50;2.97;;;7.50;99.90;;;;;;4350132;32;20080;-66
2021/10/04 00:48:31;;;;;;;6.25;3.40;;;7.50;99.90;;;;;;4351079;32;20088;-66
2021/10/04 00:50:57;;;;;;;4.78;2.60;;;7.50;99.90;;;;;;4326069;32;20094;-66
2021/10/04 00:53:23;;;;;;;4.65;2.50;;;7.40;99.90;;;;;;4362670;32;20070;-66
2021/10/04 00:55:49;;;;;;;4.15;2.80;;;7.50;99.90;;;;;;4338153;32;20066;-65
2021/10/04 00:58:16;;;;;;;5.37;3.17;;;7.60;99.90;;;;;;4362654;32;20205;-65
2021/10/04 01:00:42;;;;;;;4.97;3.30;;;7.60;99.90;;;;;;4338100;32;20093;-66
2021/10/04 01:03:08;;;;;;;6.80;3.53;;;7.60;99.90;;;;;;4350515;32;20080;-65
2021/10/04 01:05:34;;;;;;;5.35;2.80;;;7.60;99.90;;;;;;4349895;32;20078;-66
2021/10/04 01:08:00;;;;;;;4.45;2.60;;;7.60;99.90;;;;;;4338029;32;20151;-65
2021/10/04 01:10:27;;;;;;;4.15;3.10;;;7.70;99.90;;;;;;4363035;32;20085;-65
2021/10/04 01:12:53;;;;;;;3.45;2.53;;;7.60;99.90;;;;;;4339364;32;20073;-66
2021/10/04 01:15:20;;;;;;;4.50;3.03;;;7.60;99.90;;;;;;4347967;32;20094;-65
2021/10/04 01:17:47;;;;;;;3.15;2.22;;;7.60;99.90;;;;;;4335481;32;20090;-66
2021/10/04 01:20:18;;;;;;;4.72;2.60;;;7.60;99.90;;;;;;4323449;32;20518;-67
2021/10/04 01:22:44;;;;;;;3.03;2.20;;;7.60;99.90;;;;;;4347835;32;20073;-66
2021/10/04 01:25:12;;;;;;;3.67;2.33;;;7.50;99.90;;;;;;4347697;32;20078;-66
2021/10/04 01:27:40;;;;;;;4.35;2.12;;;7.50;99.90;;;;;;4335215;32;20154;-66
2021/10/04 01:30:07;;;;;;;3.90;2.30;;;7.50;99.90;;;;;;4335625;32;20078;-66
2021/10/04 01:32:34;;;;;;;3.17;2.20;;;7.50;99.90;;;;;;4347670;32;20543;-65
2021/10/04 01:35:00;;;;;;;3.08;2.10;;;7.60;99.90;;;;;;4323102;32;20089;-66
2021/10/04 01:37:27;;;;;;;4.43;2.30;;;7.50;99.90;;;;;;4347996;32;20074;-65
2021/10/04 01:39:53;;;;;;;3.58;2.30;;;7.50;99.90;;;;;;4334973;32;20082;-65
2021/10/04 01:44:59;;;;;;;4.82;2.87;;;7.40;99.90;;;;;;3857440;37;20070;-64
2021/10/04 10:56:52;;;;;;;2.12;1.60;;;11.30;61.90;;;;;;3845679;37;20055;-69
2021/10/04 10:59:24;;;;;;;;;;;;;;;;;;4378297;32;20579;-65
2021/10/04 11:01:51;;;;;;;1.20;0.98;;;;;;;;;;4399192;32;20008;-66
2021/10/04 11:04:39;;;;;;;1.55;1.20;;;;;;;;;;4359738;32;20455;-65
2021/10/04 11:07:05;;;;;;;1.15;1.02;;;;;;;;;;4365275;32;20074;-65
2021/10/04 11:10:07;;;;;;;2.40;1.50;;;;;;;;;;4391448;32;20089;-64
2021/10/04 11:13:14;;;;;;;1.83;1.33;;;;;;;;;;4369919;32;20089;-67
2021/10/04 11:15:41;;;;;;;2.42;1.10;;;;;;;;;;4392582;32;20068;-66
2021/10/04 11:18:09;;;;;;;2.72;1.58;;;;;;;;;;4388427;32;20440;-64
2021/10/04 11:20:36;;;;;;;3.83;1.85;;;;;;;;;;4386878;32;20069;-64
2021/10/04 11:23:21;;;;;;;3.33;1.52;;;;;;;;;;4370555;32;20437;-65
2021/10/04 11:25:50;;;;;;;2.95;1.25;;;;;;;;;;4386722;32;20583;-64
2021/10/04 11:28:20;;;;;;;4.28;1.95;;;;;;;;;;4356383;32;20602;-64
2021/10/04 11:30:53;;;;;;;1.75;1.40;;;;;;;;;;4385208;32;20798;-65
2021/10/04 11:33:20;;;;;;;2.37;1.55;;;;;;;;;;4387044;32;20080;-64
2021/10/04 11:36:09;;;;;;;4.20;1.60;;;;;;;;;;4386714;32;20510;-61
2021/10/04 11:38:37;;;;;;;3.47;2.20;;;;;;;;;;4397734;32;20492;-65
2021/10/04 11:41:04;;;;;;;3.40;1.73;;;;;;;;;;4396132;32;20460;-64
2021/10/04 11:43:35;;;;;;;3.83;2.45;;;11.50;60.90;;;;;;4378557;32;20069;-66
2021/10/04 11:46:14;;;;;;;3.55;1.87;;;;;;;;;;4378502;32;20461;-66
2021/10/04 11:48:41;;;;;;;5.28;1.98;;;;;;;;;;4375444;32;20101;-66
2021/10/04 11:51:12;;;;;;;3.60;1.35;;;;;;;;;;4373382;32;20069;-66
2021/10/04 11:53:39;;;;;;;2.03;1.62;;;11.70;65.10;;;;;;4385202;32;20504;-63
2021/10/04 11:56:08;;;;;;;3.25;2.03;;;11.60;63.70;;;;;;4381668;32;20065;-66
2021/10/04 11:58:58;;;;;;;3.25;1.60;;;;;;;;;;4389738;32;20076;-67
2021/10/04 12:01:33;;;;;;;2.72;2.00;;;;;;;;;;4397548;32;20089;-66
2021/10/04 12:04:08;;;;;;;2.35;1.60;;;;;;;;;;4377970;32;20065;-66
2021/10/04 12:06:36;;;;;;;4.10;1.90;;;;;;;;;;4392727;32;20125;-66
2021/10/04 12:09:03;;;;;;;2.70;1.60;;;11.70;65.00;;;;;;4374373;32;20194;-67
2021/10/04 12:11:29;;;;;;;2.55;1.70;;;10.60;64.70;;;;;;4378283;32;20503;-64
2021/10/04 12:13:56;;;;;;;4.18;1.77;;;;;;;;;;4359701;32;20070;-64
2021/10/04 12:16:26;;;;;;;2.47;1.65;;;10.60;64.10;;;;;;4374310;32;20201;-66
2021/10/04 12:18:55;;;;;;;4.18;1.55;;;10.70;66.80;;;;;;4372331;32;20073;-65
2021/10/04 12:21:40;;;;;;;3.62;1.95;;;10.90;67.00;;;;;;4362508;32;20089;-65
2021/10/04 12:24:15;;;;;;;4.22;2.20;;;;;;;;;;4386489;32;20082;-64
2021/10/04 12:27:12;;;;;;;4.25;2.00;;;;;;;;;;4384653;32;20598;-64
2021/10/04 12:29:59;;;;;;;4.70;1.92;;;;;;;;;;4375879;32;20100;-64
2021/10/04 12:32:46;;;;;;;3.15;2.25;;;;;;;;;;4379057;32;20173;-65
2021/10/04 12:35:23;;;;;;;2.85;1.75;;;11.00;65.70;;;;;;4381403;32;20057;-64
2021/10/04 12:37:53;;;;;;;3.25;1.92;;;;;;;;;;4352092;32;20085;-64
2021/10/04 12:40:48;;;;;;;3.67;2.17;;;;;;;;;;4378118;32;20078;-65
2021/10/04 12:43:25;;;;;;;1.80;1.58;;;;;;;;;;4382679;32;20113;-67
2021/10/04 12:46:06;;;;;;;5.37;2.20;;;;;;;;;;4385369;32;20076;-64
2021/10/04 12:48:37;;;;;;;9.85;2.50;;;;;;;;;;4370521;32;20104;-65
2021/10/04 12:51:09;;;;;;;10.13;3.03;;;10.30;68.70;;;;;;4365759;32;20164;-66
2021/10/04 12:53:52;;;;;;;9.57;3.62;;;10.50;63.70;;;;;;4370319;32;20496;-64
2021/10/04 12:56:24;;;;;;;8.63;2.83;;;;;;;;;;4369125;32;20196;-64
2021/10/04 12:59:04;;;;;;;4.37;1.85;;;;;;;;;;4396580;32;20089;-65
2021/10/04 13:01:32;;;;;;;4.05;2.10;;;;;;;;;;4380282;32;20070;-63
2021/10/04 13:04:07;;;;;;;4.72;2.10;;;;;;;;;;4363721;32;20074;-64
2021/10/04 13:06:35;;;;;;;3.03;1.90;;;;;;;;;;4373737;32;20090;-63
2021/10/04 13:09:03;;;;;;;4.57;2.42;;;;;;;;;;4388437;32;20078;-63
2021/10/04 13:11:29;;;;;;;5.60;2.70;;;10.50;62.90;;;;;;4362817;32;20472;-62
2021/10/04 13:13:56;;;;;;;6.18;2.65;;;10.40;63.90;;;;;;4371642;32;20608;-65
2021/10/04 13:16:23;;;;;;;3.97;2.28;;;10.40;64.70;;;;;;4361671;32;20061;-64
2021/10/04 13:18:49;;;;;;;2.72;2.00;;;10.30;64.40;;;;;;4380568;32;20069;-64
2021/10/04 13:21:16;;;;;;;2.60;1.77;;;10.20;64.60;;;;;;4361748;32;20077;-63
2021/10/04 13:23:42;;;;;;;4.57;1.87;;;10.20;64.30;;;;;;4377039;32;20081;-64
2021/10/04 13:26:12;;;;;;;2.87;2.15;;;10.30;64.80;;;;;;4361120;32;20096;-63
2021/10/04 13:28:38;;;;;;;7.87;2.55;;;10.30;65.80;;;;;;4356485;32;20166;-65
2021/10/04 13:31:08;;;;;;;5.90;2.60;;;10.20;66.20;;;;;;4351062;32;20428;-64
2021/10/04 13:33:35;;;;;;;2.62;2.10;;;10.10;68.10;;;;;;4353459;32;20050;-62
2021/10/04 13:36:01;;;;;;;6.75;2.35;;;10.00;66.10;;;;;;4373088;32;20108;-66
2021/10/04 13:38:31;;;;;;;2.95;2.20;;;10.00;66.10;;;;;;4382622;32;20051;-63
2021/10/04 13:40:58;;;;;;;3.70;2.30;;;10.00;65.90;;;;;;4394500;32;20142;-65
2021/10/04 13:43:25;;;;;;;6.35;2.30;;;;;;;;;;4345373;32;20496;-64
2021/10/04 13:45:52;;;;;;;4.07;2.22;;;;;;;;;;4382073;32;20105;-64
2021/10/04 13:48:19;;;;;;;3.37;2.10;;;;;;;;;;4374565;32;20074;-64
2021/10/04 13:50:46;;;;;;;4.62;2.33;;;;;;;;;;4368924;32;20078;-64
2021/10/04 13:53:12;;;;;;;6.65;2.62;;;;;;;;;;4375107;32;20058;-63
2021/10/04 13:55:39;;;;;;;4.70;2.60;;;;;;;;;;4386628;32;20596;-63
2021/10/04 13:58:06;;;;;;;5.80;2.45;;;;;;;;;;4372131;32;20496;-63
2021/10/04 14:00:33;;;;;;;4.22;2.58;;;;;;;;;;4371296;32;20069;-65
2021/10/04 14:03:00;;;;;;;5.47;2.53;;;;;;;;;;4384265;32;20109;-64
2021/10/04 14:05:27;;;;;;;5.55;2.70;;;;;;;;;;4381235;32;20103;-64
2021/10/04 14:07:55;;;;;;;5.07;2.97;;;;;;;;;;4367787;32;20086;-65
2021/10/04 14:10:23;;;;;;;6.37;3.37;;;;;;;;;;4370093;32;20206;-64
2021/10/04 14:12:49;;;;;;;6.15;2.92;;;;;;;;;;4367093;32;20074;-65
2021/10/04 14:15:16;;;;;;;6.22;3.17;;;;;;;;;;4388051;32;20109;-65
2021/10/04 14:17:43;;;;;;;5.28;2.53;;;;;;;;;;4384812;32;20177;-65
2021/10/04 14:20:11;;;;;;;10.90;3.60;;;;;;;;;;4379740;32;20141;-65
2021/10/04 14:22:38;;;;;;;8.52;3.08;;;;;;;;;;4362060;32;20508;-68
2021/10/04 14:25:06;;;;;;;5.30;3.12;;;;;;;;;;4374520;32;20238;-65
2021/10/04 14:27:33;;;;;;;5.60;3.20;;;;;;;;;;4368304;32;20070;-65
2021/10/04 14:29:59;;;;;;;6.53;2.90;;;;;;;;;;4368233;32;20074;-65
2021/10/04 14:32:26;;;;;;;5.87;2.67;;;;;;;;;;4385124;32;20084;-64
2021/10/04 14:34:53;;;;;;;3.90;2.28;;;;;;;;;;4395307;32;20078;-64
2021/10/04 14:37:19;;;;;;;5.65;2.70;;;;;;;;;;4378708;32;20584;-64
2021/10/04 14:39:46;;;;;;;4.15;2.50;;;;;;;;;;4370258;32;20102;-63
2021/10/04 14:42:13;;;;;;;4.95;3.08;;;;;;;;;;4370238;32;20184;-65
2021/10/04 14:44:39;;;;;;;7.15;3.05;;;;;;;;;;4358533;32;20624;-64
2021/10/04 14:47:06;;;;;;;6.95;3.35;;;;;;;;;;4394748;32;20092;-66
2021/10/04 14:49:33;;;;;;;5.25;2.75;;;9.90;65.90;;;;;;4368716;32;20074;-64
2021/10/04 14:51:59;;;;;;;4.78;2.55;;;;;;;;;;4385988;32;20112;-64
2021/10/04 14:54:26;;;;;;;5.55;2.40;;;;;;;;;;4371082;32;20089;-64
2021/10/04 14:56:53;;;;;;;6.03;2.97;;;;;;;;;;4372303;32;20098;-64
2021/10/04 14:59:20;;;;;;;4.15;2.20;;;;;;;;;;4379264;32;20093;-63
2021/10/04 15:01:47;;;;;;;4.82;2.10;;;;;;;;;;4355708;32;20081;-66
2021/10/04 15:04:15;;;;;;;4.20;2.25;;;;;;;;;;4367161;32;20092;-70
2021/10/04 15:06:42;;;;;;;4.00;2.10;;;;;;;;;;4371150;32;20613;-65
2021/10/04 15:09:09;;;;;;;6.78;2.60;;;;;;;;;;4368732;32;20371;-63
2021/10/04 15:11:35;;;;;;;4.93;2.12;;;;;;;;;;4361998;32;20094;-66
2021/10/04 15:14:02;;;;;;;5.00;2.65;;;;;;;;;;4370162;32;20073;-65
2021/10/04 15:16:29;;;;;;;6.72;2.75;;;;;;;;;;4350220;32;20112;-66
2021/10/04 15:18:56;;;;;;;4.32;2.37;;;8.60;82.90;;;;;;4390137;32;20517;-63
2021/10/04 15:21:22;;;;;;;5.28;2.90;;;8.30;87.90;;;;;;4377417;32;20070;-66
2021/10/04 15:23:49;;;;;;;6.30;4.12;;;8.20;88.90;;;;;;4363289;32;20112;-66
2021/10/04 15:26:15;;;;;;;6.40;3.72;;;8.30;88.80;;;;;;4368934;32;20087;-64
2021/10/04 15:28:42;;;;;;;5.80;3.28;;;8.30;86.30;;;;;;4375026;32;20085;-65
2021/10/04 15:31:08;;;;;;;9.60;3.20;;;8.30;87.00;;;;;;4353745;32;20172;-66
2021/10/04 15:33:36;;;;;;;4.65;3.00;;;8.30;85.30;;;;;;4342068;32;20094;-65
2021/10/04 15:36:04;;;;;;;5.80;3.65;;;8.30;84.60;;;;;;4364594;32;20175;-65
2021/10/04 15:38:30;;;;;;;6.97;2.83;;;8.20;84.90;;;;;;4352737;32;20069;-64
2021/10/04 15:40:57;;;;;;;5.57;2.92;;;8.10;85.00;;;;;;4353735;32;20071;-64
2021/10/04 15:43:23;;;;;;;5.53;3.12;;;8.10;84.50;;;;;;4373793;32;20069;-64
2021/10/04 15:45:50;;;;;;;6.40;3.22;;;8.00;84.30;;;;;;4379061;32;20081;-66
2021/10/04 15:48:18;;;;;;;6.32;3.30;;;8.00;83.10;;;;;;4362977;32;20109;-64
2021/10/04 15:50:49;;;;;;;4.68;3.12;;;7.90;84.30;;;;;;4354711;32;20527;-64
2021/10/04 15:53:15;;;;;;;5.70;3.05;;;7.90;84.80;;;;;;4371593;32;20070;-64
2021/10/04 15:55:42;;;;;;;6.15;3.10;;;7.80;86.30;;;;;;4390909;32;20081;-65
2021/10/04 15:58:09;;;;;;;5.93;3.47;;;7.70;87.30;;;;;;4357173;32;20074;-64
2021/10/04 16:00:35;;;;;;;8.02;3.83;;;7.60;88.80;;;;;;4357977;32;20504;-65
2021/10/04 16:03:02;;;;;;;8.35;3.78;;;7.50;91.10;;;;;;4361465;32;20069;-65
2021/10/04 16:05:29;;;;;;;7.55;4.37;;;7.40;90.70;;;;;;4383458;32;20081;-64
2021/10/04 16:08:01;;;;;;;10.63;5.65;;;7.40;91.00;;;;;;4379200;32;20485;-65
2021/10/04 16:10:27;;;;;;;11.00;5.72;;;7.30;91.50;;;;;;4353807;32;20152;-65
2021/10/04 16:12:54;;;;;;;9.85;5.28;;;7.20;92.20;;;;;;4383798;32;20072;-65
2021/10/04 16:15:20;;;;;;;9.50;4.55;;;7.20;92.70;;;;;;4365318;32;20081;-64
2021/10/04 16:17:46;;;;;;;11.00;5.32;;;7.10;93.50;;;;;;4388583;32;20164;-64
2021/10/04 16:20:13;;;;;;;7.40;4.20;;;7.00;95.60;;;;;;4370579;32;20463;-64
2021/10/04 16:22:40;;;;;;;8.38;4.20;;;7.00;94.70;;;;;;4367086;32;20068;-64
2021/10/04 16:25:07;;;;;;;10.35;3.83;;;7.00;94.80;;;;;;4373793;32;20221;-65
2021/10/04 16:27:35;;;;;;;6.07;4.12;;;6.80;95.40;;;;;;4366252;32;20543;-65
2021/10/04 16:30:01;;;;;;;6.18;3.70;;;6.60;95.10;;;;;;4371322;32;20485;-63
2021/10/04 16:32:28;;;;;;;7.18;3.58;;;6.60;96.60;;;;;;4392542;32;20089;-65
2021/10/04 16:34:54;;;;;;;5.65;3.08;;;6.60;96.00;;;;;;4372235;32;20168;-64
2021/10/04 16:37:20;;;;;;;5.95;3.28;;;6.60;95.30;;;;;;4355098;32;20093;-64
2021/10/04 16:39:46;;;;;;;5.82;2.95;;;6.70;95.40;;;;;;4380605;32;20084;-65
2021/10/04 16:42:12;;;;;;;5.25;3.15;;;6.60;94.80;;;;;;4367568;32;20550;-65
2021/10/04 16:44:40;;;;;;;4.93;3.10;;;6.60;95.00;;;;;;4349241;32;20178;-64
2021/10/04 16:47:06;;;;;;;5.57;3.12;;;6.50;96.70;;;;;;4376819;32;20149;-64
2021/10/04 16:49:33;;;;;;;6.15;3.40;;;6.40;97.90;;;;;;4368711;32;20145;-64
2021/10/04 16:52:03;;;;;;;5.95;3.22;;;6.40;97.20;;;;;;4379793;32;20089;-64
2021/10/04 16:54:30;;;;;;;4.85;2.80;;;6.30;98.40;;;;;;4389295;32;20168;-65
2021/10/04 16:56:57;;;;;;;5.55;3.20;;;6.40;97.60;;;;;;4371575;32;20058;-65
2021/10/04 16:59:23;;;;;;;8.18;3.45;;;6.30;98.10;;;;;;4390284;32;20152;-64
2021/10/04 17:01:50;;;;;;;6.75;3.60;;;6.30;97.20;;;;;;4353912;32;20073;-63
2021/10/04 17:04:17;;;;;;;6.18;3.92;;;6.20;97.70;;;;;;4346131;32;20070;-63
2021/10/04 17:06:43;;;;;;;5.75;3.45;;;6.20;97.40;;;;;;4359048;32;20155;-64
2021/10/04 17:09:10;;;;;;;6.95;3.78;;;6.20;98.60;;;;;;4379403;32;20078;-64
2021/10/04 17:11:38;;;;;;;5.40;3.20;;;6.10;98.30;;;;;;4364816;32;20074;-65
2021/10/04 17:14:06;;;;;;;4.65;2.92;;;6.10;98.60;;;;;;4371769;32;20171;-64
2021/10/04 17:16:32;;;;;;;5.22;3.17;;;6.10;97.80;;;;;;4371657;32;20157;-65
2021/10/04 17:18:59;;;;;;;5.15;2.87;;;6.10;97.40;;;;;;4393182;32;20170;-64
2021/10/04 17:21:25;;;;;;;4.10;2.83;;;6.00;98.90;;;;;;4389476;32;20584;-64
2021/10/04 17:23:51;;;;;;;5.87;3.08;;;6.00;98.10;;;;;;4379931;32;20162;-65
2021/10/04 17:26:18;;;;;;;6.40;3.37;;;6.00;98.10;;;;;;4378837;32;20107;-65
2021/10/04 17:28:51;;;;;;;6.32;3.28;;;5.90;98.30;;;;;;4392169;32;20069;-64
2021/10/04 17:31:18;;;;;;;4.53;2.62;;;5.90;97.90;;;;;;4377773;32;20176;-64
2021/10/04 17:33:44;;;;;;;6.75;3.33;;;5.80;99.40;;;;;;4353969;32;20074;-65
2021/10/04 17:36:10;;;;;;;7.18;3.10;;;5.80;99.80;;;;;;4367186;32;20085;-65
2021/10/04 17:38:37;;;;;;;6.30;2.25;;;5.70;99.20;;;;;;4366636;32;20066;-64
2021/10/04 17:41:04;;;;;;;4.60;2.90;;;5.80;99.20;;;;;;4347093;32;20135;-65
2021/10/04 17:43:31;;;;;;;4.55;2.78;;;5.70;99.00;;;;;;4363169;32;20440;-64
2021/10/04 17:45:58;;;;;;;5.95;2.87;;;5.60;99.60;;;;;;4377857;32;20140;-64
2021/10/04 17:48:25;;;;;;;4.12;2.40;;;5.50;99.90;;;;;;4346349;32;20158;-65
2021/10/04 17:50:54;;;;;;;4.10;2.37;;;5.50;99.90;;;;;;4367992;32;20076;-65
2021/10/04 17:53:21;;;;;;;3.45;2.50;;;5.50;99.90;;;;;;4365403;32;20080;-64
2021/10/04 17:55:48;;;;;;;5.32;2.25;;;5.50;99.90;;;;;;4376337;32;20071;-64
2021/10/04 17:58:14;;;;;;;5.70;2.37;;;5.50;99.90;;;;;;4377915;32;20073;-63
2021/10/04 18:00:42;;;;;;;5.00;2.83;;;5.40;99.90;;;;;;4358999;32;20140;-63
2021/10/04 18:03:09;;;;;;;4.87;2.70;;;5.40;99.90;;;;;;4388015;32;20084;-64
2021/10/04 18:05:35;;;;;;;4.95;2.50;;;5.30;99.90;;;;;;4352172;32;20538;-63
2021/10/04 18:08:01;;;;;;;4.87;2.95;;;5.30;99.90;;;;;;4366503;32;20497;-64
2021/10/04 18:10:27;;;;;;;5.50;3.40;;;5.30;99.90;;;;;;4372596;32;20137;-65
2021/10/04 18:12:54;;;;;;;5.68;2.97;;;5.20;99.90;;;;;;4383518;32;20441;-65
2021/10/04 18:15:20;;;;;;;6.53;3.20;;;5.00;99.90;;;;;;4360518;32;20081;-64
2021/10/04 18:17:47;;;;;;;6.65;3.20;;;5.00;99.90;;;;;;4390447;32;20174;-64
2021/10/04 18:20:14;;;;;;;8.18;3.97;;;4.80;99.90;;;;;;4378066;32;20146;-64
2021/10/04 18:22:41;;;;;;;7.43;3.80;;;4.80;99.90;;;;;;4375754;32;20078;-64
2021/10/04 18:25:08;;;;;;;6.25;3.47;;;4.80;99.90;;;;;;4374928;32;20076;-64
2021/10/04 18:27:35;;;;;;;6.07;3.78;;;4.80;99.90;;;;;;4390097;32;20504;-63
2021/10/04 18:30:01;;;;;;;6.90;4.12;;;4.70;99.90;;;;;;4382662;32;20070;-66
2021/10/04 18:32:27;;;;;;;8.07;3.95;;;4.70;99.90;;;;;;4410985;32;20058;-69
2021/10/04 18:34:53;;;;;;;5.65;3.62;;;4.60;99.90;;;;;;4395574;32;20074;-63
2021/10/04 18:37:22;;;;;;;6.70;3.90;;;4.50;99.90;;;;;;4398719;32;20078;-64
2021/10/04 18:39:49;;;;;;;7.75;3.95;;;4.70;99.90;;;;;;4379198;32;20057;-64
2021/10/04 18:42:15;;;;;;;8.48;4.05;;;4.70;99.90;;;;;;4372851;32;20074;-64
2021/10/04 18:44:42;;;;;;;8.18;4.07;;;4.80;99.90;;;;;;4348227;32;20535;-64
2021/10/04 18:47:08;;;;;;;9.63;4.35;;;4.70;99.90;;;;;;4377242;32;20081;-63
2021/10/04 18:49:34;;;;;;;8.60;3.72;;;4.70;99.90;;;;;;4374663;32;20551;-66
2021/10/04 18:52:01;;;;;;;7.53;4.18;;;4.70;99.90;;;;;;4364620;32;20153;-64
2021/10/04 18:54:28;;;;;;;9.68;5.20;;;4.80;99.90;;;;;;4344911;32;20586;-65
2021/10/04 18:56:55;;;;;;;10.70;5.60;;;4.70;99.90;;;;;;4346971;32;20058;-64
2021/10/04 18:59:22;;;;;;;8.55;5.20;;;4.60;99.90;;;;;;4379376;32;20072;-64
2021/10/04 19:01:48;;;;;;;9.18;5.47;;;4.80;99.90;;;;;;4369107;32;20085;-64
2021/10/04 19:04:14;;;;;;;10.18;5.72;;;4.80;99.90;;;;;;4379153;32;20181;-62
2021/10/04 19:06:40;;;;;;;10.15;5.90;;;4.80;99.90;;;;;;4396955;32;20112;-63
2021/10/04 19:09:06;;;;;;;9.70;6.00;;;4.80;99.90;;;;;;4384123;32;20154;-65
2021/10/04 19:11:32;;;;;;;8.40;5.70;;;4.90;99.90;;;;;;4379601;32;20150;-65
2021/10/04 19:13:59;;;;;;;10.05;5.03;;;4.80;99.90;;;;;;4396743;32;20081;-65
2021/10/04 19:16:25;;;;;;;8.70;5.03;;;4.90;97.70;;;;;;4397134;32;20065;-65
2021/10/04 19:18:54;;;;;;;9.52;5.22;;;4.80;97.40;;;;;;4402747;32;20088;-66
2021/10/04 19:21:22;;;;;;;15.55;5.62;;;4.80;97.10;;;;;;4368036;32;20088;-67
2021/10/04 19:23:48;;;;;;;7.47;4.57;;;4.90;96.10;;;;;;4367983;32;20074;-65
2021/10/04 19:26:15;;;;;;;9.57;4.93;;;4.90;95.20;;;;;;4378712;32;20496;-66
2021/10/04 19:28:41;;;;;;;6.87;4.22;;;4.80;96.80;;;;;;4368154;32;20452;-65
2021/10/04 19:31:07;;;;;;;7.15;4.03;;;4.90;95.00;;;;;;4374405;32;20181;-65
2021/10/04 19:33:33;;;;;;;9.98;5.00;;;5.00;93.90;;;;;;4379681;32;20061;-64
2021/10/04 19:36:00;;;;;;;8.30;4.53;;;4.70;95.60;;;;;;4379750;32;20165;-64
2021/10/04 19:38:26;;;;;;;7.07;4.20;;;4.60;96.10;;;;;;4382816;32;20070;-65
2021/10/04 19:40:52;;;;;;;9.38;4.70;;;4.60;95.80;;;;;;4386315;32;20070;-65
2021/10/04 19:43:20;;;;;;;9.23;4.75;;;4.60;95.80;;;;;;4359633;32;20058;-65
2021/10/04 19:45:46;;;;;;;9.10;5.07;;;4.60;96.30;;;;;;4373969;32;20132;-65
2021/10/04 19:48:13;;;;;;;8.40;4.18;;;4.50;95.50;;;;;;4358682;32;20085;-65
2021/10/04 19:50:39;;;;;;;11.50;4.18;;;4.60;94.80;;;;;;4381856;32;20069;-64
2021/10/04 19:53:09;;;;;;;7.07;3.72;;;4.70;94.00;;;;;;4384807;32;20074;-65
2021/10/04 19:55:36;;;;;;;6.93;3.95;;;4.80;92.70;;;;;;4367241;32;20190;-66
2021/10/04 19:58:02;;;;;;;7.18;4.00;;;4.80;92.40;;;;;;4399592;32;20149;-65
2021/10/04 20:00:28;;;;;;;6.75;3.85;;;4.80;92.80;;;;;;4373262;32;20077;-65
2021/10/04 20:02:55;;;;;;;6.43;3.08;;;4.60;92.80;;;;;;4372896;32;20501;-65
2021/10/04 20:05:21;;;;;;;9.27;3.62;;;4.70;92.30;;;;;;4375531;32;20092;-65
2021/10/04 20:07:47;;;;;;;6.12;3.55;;;4.70;91.80;;;;;;4366555;32;20456;-65
2021/10/04 20:10:14;;;;;;;11.20;4.35;;;4.60;92.10;;;;;;4377559;32;20152;-64
2021/10/04 20:12:40;;;;;;;6.45;3.70;;;4.60;92.00;;;;;;4374876;32;20175;-65
2021/10/04 20:15:07;;;;;;;7.07;3.55;;;4.50;92.30;;;;;;4366634;32;20096;-65
2021/10/04 20:17:33;;;;;;;7.07;3.58;;;4.60;91.40;;;;;;4374099;32;20070;-65
2021/10/04 20:19:59;;;;;;;5.95;3.20;;;4.50;91.30;;;;;;4379032;32;20066;-65
2021/10/04 20:22:26;;;;;;;7.43;3.70;;;4.50;91.30;;;;;;4343094;32;20595;-65
2021/10/04 20:25:01;;;;;;;6.35;3.70;;;4.50;91.50;;;;;;4374540;32;20074;-66
2021/10/04 20:27:28;;;;;;;6.70;3.70;;;4.40;93.40;;;;;;4370660;32;20057;-64
2021/10/04 20:29:55;;;;;;;9.65;3.58;;;4.10;95.60;;;;;;4374577;32;20112;-66
2021/10/04 20:32:21;;;;;;;8.13;4.47;;;4.10;96.10;;;;;;4371505;32;20500;-64
2021/10/04 20:34:47;;;;;;;7.47;4.40;;;4.00;96.50;;;;;;4378932;32;20153;-64
2021/10/04 20:37:13;;;;;;;9.30;4.15;;;4.10;97.70;;;;;;4403008;32;20065;-65
2021/10/04 20:39:40;;;;;;;9.90;4.20;;;3.90;98.80;;;;;;4368941;32;20081;-65
2021/10/04 20:42:06;;;;;;;9.20;4.78;;;4.10;96.70;;;;;;4377619;32;20178;-65
2021/10/04 20:44:32;;;;;;;8.13;4.40;;;4.00;97.50;;;;;;4353574;32;20062;-64
2021/10/04 20:46:59;;;;;;;12.75;5.40;;;4.00;97.90;;;;;;4383670;32;20456;-65
2021/10/04 20:49:25;;;;;;;6.93;3.85;;;3.80;99.00;;;;;;4362637;32;20093;-66
2021/10/04 20:51:51;;;;;;;10.55;5.45;;;3.90;98.10;;;;;;4366314;32;20093;-64
2021/10/04 20:54:20;;;;;;;8.48;4.80;;;3.70;99.90;;;;;;4380215;32;20082;-63
2021/10/04 20:56:46;;;;;;;8.57;4.70;;;3.70;99.90;;;;;;4374105;32;20084;-68
2021/10/04 20:59:12;;;;;;;9.90;5.70;;;3.60;99.90;;;;;;4379639;32;20085;-64
2021/10/04 21:01:39;;;;;;;9.05;5.18;;;3.60;99.90;;;;;;4364020;32;20162;-64
2021/10/04 21:04:06;;;;;;;10.20;5.40;;;3.60;99.90;;;;;;4378670;32;20074;-65
2021/10/04 21:06:32;;;;;;;10.40;5.32;;;3.50;99.90;;;;;;4382156;32;20089;-64
2021/10/04 21:08:58;;;;;;;11.27;6.87;;;3.40;99.90;;;;;;4384439;32;20068;-64
2021/10/04 21:11:43;;;;;;;12.55;6.50;;;3.30;99.90;;;;;;3858324;37;20070;-65
2021/10/04 21:14:13;;;;;;;10.23;5.90;;;3.30;99.90;;;;;;4378319;32;20066;-64
2021/10/04 21:16:40;;;;;;;11.32;5.57;;;3.30;99.90;;;;;;4394917;32;20161;-66
2021/10/04 21:19:06;;;;;;;10.65;5.70;;;3.30;99.90;;;;;;4382490;32;20085;-64
2021/10/04 21:21:33;;;;;;;14.15;5.62;;;3.20;99.90;;;;;;4379574;32;20080;-66
2021/10/04 21:24:00;;;;;;;10.52;5.30;;;3.20;99.90;;;;;;4378061;32;20077;-65
2021/10/04 21:26:26;;;;;;;10.88;4.85;;;3.20;99.90;;;;;;4408848;32;20232;-64
2021/10/04 21:28:52;;;;;;;7.25;4.60;;;3.10;99.90;;;;;;4403583;32;20538;-64
2021/10/04 21:31:18;;;;;;;9.52;5.22;;;3.20;99.90;;;;;;4406664;32;20078;-64
2021/10/04 21:33:44;;;;;;;9.65;5.10;;;3.10;99.90;;;;;;4401975;32;20073;-67
2021/10/04 21:36:10;;;;;;;13.90;4.68;;;3.00;99.90;;;;;;4389561;32;20587;-64
2021/10/04 21:38:37;;;;;;;10.60;5.00;;;3.00;99.90;;;;;;4406181;32;20156;-65
2021/10/04 21:41:03;;;;;;;9.68;4.82;;;3.00;99.90;;;;;;4377271;32;20089;-64
2021/10/04 21:43:29;;;;;;;11.43;5.25;;;3.00;99.90;;;;;;4408995;32;20066;-64
2021/10/04 21:45:55;;;;;;;13.23;4.40;;;2.90;99.90;;;;;;4408415;32;20081;-64
2021/10/04 21:48:21;;;;;;;12.20;4.78;;;2.80;99.90;;;;;;4408659;32;20072;-65
2021/10/04 21:50:48;;;;;;;10.50;4.75;;;2.80;99.90;;;;;;4392203;32;20082;-66
2021/10/04 21:53:15;;;;;;;10.82;4.75;;;2.80;99.90;;;;;;4379691;32;20086;-64
2021/10/04 21:55:41;;;;;;;8.63;4.85;;;2.80;99.90;;;;;;4380287;32;20081;-65
2021/10/04 21:58:07;;;;;;;10.38;4.30;;;2.70;99.90;;;;;;4385643;32;20075;-64
2021/10/04 22:00:58;;;;;;;9.25;4.40;;;2.70;99.90;;;;;;4396203;32;20083;-64
2021/10/04 22:11:31;;;;;;;8.38;4.12;;;2.60;99.90;;;;;;4401920;32;20076;-63
2021/10/04 22:13:57;;;;;;;9.02;4.12;;;2.60;99.90;;;;;;4389138;32;20080;-65
2021/10/04 22:16:24;;;;;;;9.43;4.70;;;2.60;99.90;;;;;;4392010;32;20092;-66
2021/10/04 22:18:50;;;;;;;31.45;5.50;;;2.50;99.90;;;;;;4382514;32;20152;-64
2021/10/04 22:21:17;;;;;;;9.30;4.05;;;2.40;99.90;;;;;;4383139;32;20170;-65
2021/10/04 22:23:44;;;;;;;8.10;4.03;;;2.40;99.90;;;;;;4379375;32;20145;-65
2021/10/04 22:26:12;;;;;;;8.80;4.18;;;2.50;99.90;;;;;;4368947;32;20076;-65
2021/10/04 22:28:38;;;;;;;11.07;5.22;;;2.40;99.90;;;;;;4378777;32;20077;-64
2021/10/04 22:31:05;;;;;;;12.75;5.03;;;2.40;99.90;;;;;;4377684;32;20077;-64
2021/10/04 22:33:31;;;;;;;9.32;5.35;;;2.40;99.90;;;;;;4390603;32;20081;-64
2021/10/04 22:35:57;;;;;;;10.98;4.37;;;2.40;99.90;;;;;;4391275;32;20073;-65
2021/10/04 22:38:24;;;;;;;10.13;4.85;;;2.30;99.90;;;;;;4366353;32;20081;-64
2021/10/04 22:40:50;;;;;;;9.48;5.15;;;2.40;99.90;;;;;;4362371;32;20504;-65
2021/10/04 22:43:17;;;;;;;11.15;4.90;;;2.50;99.90;;;;;;4363490;32;20077;-63